Main page
METAR-TAF:

METAR-TAF

Airports :

Fujairah International Airport

Fujairah, United Arab Emirates

latitude: 25-06N, longitude: 056-20E, elevation: 28 m

Current weather observation

The report was made 2 hours and 57 minutes ago, at 03:00 UTC
Wind 4 kt from the East/Southeast
Temperature 29°C
Humidity 89%
Pressure 1003 hPa
Visibility: 6000 m

METAR: OMFJ 250300Z 12004KT 6000 NSC 29/27 Q1002 A2961

Time: 09:57 (05:57 UTC)

Forecast

The report was made 6 hours and 57 minutes ago, at 23:00 UTC
Forecast valid from 25 at 00 UTC to 26 at 06 UTC
Wind 8 kt from the North/Northwest
Visibility: 7000 m
Becoming
from 25 at 05 UTC to 25 at 07 UTC
Wind 8 kt from the East
Becoming
from 25 at 15 UTC to 25 at 17 UTC
Wind 3 kt from variable directions
Temporary
from 25 at 22 UTC to 26 at 03 UTC
Visibility: 5000 m
haze

TAF: OMFJ 242300Z 2500/2606 33008KT 7000 NSC BECMG 2505/2507 09008KT BECMG 2515/2517 VRB03KT TEMPO 2522/2603 5000 HZ

Weather observations and forecasts of more than 4000 airports (METAR and TAF reports).

The available stations are represented by yellow and red dots on the map.

Hover mouse over dot to see the name of the station.

Then click to see weather observations and forecasts.

To change the map : click on the green buttons with a black cross to zoom in, on the green button with a dash to zoom out, or on the green arrows for adjacent maps.


METAR-TAF: